Time;durP1;ratioP1;P1;durP2;ratioP2;P2;SDS_P1;SDS_P2;PMS_P1;PMS_P2;Temp;Humidity;BMP_temperature;BMP_pressure;BME280_temperature;BME280_humidity;BME280_pressure;Samples;Min_cycle;Max_cycle;Signal;HPM_P1;HPM_P2
2022/09/11 00:00:28;;;;;;;;;;;;;;;;;;4951134;28;1911;-71
2022/09/11 00:02:54;;;;;;;;;;;;;;;;;;4933615;29;1299;-71
2022/09/11 00:05:21;;;;;;;;;;;;;;;;;;4933920;29;1365;-72
2022/09/11 00:07:47;;;;;;;;;;;;;;;;;;4934129;29;1152;-71
2022/09/11 00:10:13;;;;;;;;;;;;;;;;;;4950721;28;1415;-72
2022/09/11 00:12:39;;;;;;;;;;;;;;;;;;4950485;28;813;-72
2022/09/11 00:15:06;;;;;;;;;;;;;;;;;;4950790;28;985;-72
2022/09/11 00:17:33;;;;;;;;;;;;;;;;;;4933535;29;1176;-72
2022/09/11 00:20:00;;;;;;;;;;;;;;;;;;4951105;28;1985;-70
2022/09/11 00:22:26;;;;;;;;;;;;;;;;;;4950442;29;1084;-70
2022/09/11 00:24:53;;;;;;;;;;;;;;;;;;4933744;29;1171;-72
2022/09/11 00:27:20;;;;;;;;;;;;;;;;;;4950607;29;914;-71
2022/09/11 00:29:46;;;;;;;;;;;;;;;;;;4933793;29;1372;-71
2022/09/11 00:32:14;;;;;;;;;;;;;;;;;;4933266;29;1591;-71
2022/09/11 00:34:41;;;;;;;;;;;;;;;;;;4950832;29;802;-72
2022/09/11 00:37:08;;;;;;;;;;;;;;;;;;4950722;29;988;-72
2022/09/11 00:39:34;;;;;;;;;;;;;;;;;;4933366;29;1248;-72
2022/09/11 00:42:01;;;;;;;;;;;;;;;;;;4933133;29;1976;-72
2022/09/11 00:44:46;;;;;;;;;;;;;;;;;;4950588;29;861;-72
2022/09/11 00:47:12;;;;;;;;;;;;;;;;;;4933275;29;1465;-72
2022/09/11 00:49:40;;;;;;;;;;;;;;;;;;4950484;28;1416;-72
2022/09/11 00:52:08;;;;;;;;;;;;;;;;;;4933059;29;990;-72
2022/09/11 00:54:35;;;;;;;;;;;;;;;;;;4933310;29;1428;-71
2022/09/11 00:57:02;;;;;;;;;;;;;;;;;;4933128;29;1315;-71
2022/09/11 00:59:29;;;;;;;;;;;;;;;;;;4933604;29;1334;-72
2022/09/11 01:01:55;;;;;;;;;;;;;;;;;;4932988;29;1980;-72
2022/09/11 01:04:21;;;;;;;;;;;;;;;;;;4933126;29;1460;-72
2022/09/11 01:06:48;;;;;;;;;;;;;;;;;;4933356;29;1338;-72
2022/09/11 01:09:16;;;;;;;;;;;;;;;;;;4932956;28;1329;-71
2022/09/11 01:11:44;;;;;;;;;;;;;;;;;;4932936;29;1311;-70
2022/09/11 01:14:15;;;;;;;;;;;;;;;;;;4950014;29;1496;-71
2022/09/11 01:16:42;;;;;;;;;;;;;;;;;;4932984;29;1428;-71
2022/09/11 01:19:13;;;;;;;;;;;;;;;;;;4933022;28;1390;-72
2022/09/11 01:21:42;;;;;;;;;;;;;;;;;;4932669;29;1978;-71
2022/09/11 01:24:12;;;;;;;;;;;;;;;;;;4950812;28;748;-71
2022/09/11 01:26:46;;;;;;;;;;;;;;;;;;4936351;29;1160;-71
2022/09/11 01:29:16;;;;;;;;;;;;;;;;;;4953446;28;1389;-71
2022/09/11 01:31:45;;;;;;;;;;;;;;;;;;4936129;29;1187;-71
2022/09/11 01:34:15;;;;;;;;;;;;;;;;;;4936159;29;1220;-72
2022/09/11 01:36:43;;;;;;;;;;;;;;;;;;4936291;29;1326;-71
2022/09/11 01:39:09;;;;;;;;;;;;;;;;;;4936121;28;1407;-72
2022/09/11 01:41:39;;;;;;;;;;;;;;;;;;4935705;29;1910;-72
2022/09/11 01:44:06;;;;;;;;;;;;;;;;;;4936311;29;1190;-72
2022/09/11 01:46:36;;;;;;;;;;;;;;;;;;4936069;29;1243;-70
2022/09/11 01:49:03;;;;;;;;;;;;;;;;;;4936004;28;1557;-71
2022/09/11 01:51:30;;;;;;;;;;;;;;;;;;4935632;29;1388;-72
2022/09/11 01:53:58;;;;;;;;;;;;;;;;;;4935994;29;1168;-71
2022/09/11 01:56:26;;;;;;;;;;;;;;;;;;4935680;29;1192;-71
2022/09/11 01:58:54;;;;;;;;;;;;;;;;;;4935875;28;1463;-69
2022/09/11 02:01:22;;;;;;;;;;;;;;;;;;4952641;29;1911;-70
2022/09/11 02:03:50;;;;;;;;;;;;;;;;;;4935646;29;1112;-71
2022/09/11 02:06:21;;;;;;;;;;;;;;;;;;4935780;29;1587;-72
2022/09/11 02:08:48;;;;;;;;;;;;;;;;;;4935682;29;1140;-72
2022/09/11 02:11:18;;;;;;;;;;;;;;;;;;4935298;29;1119;-70
2022/09/11 02:13:46;;;;;;;;;;;;;;;;;;4935644;29;1342;-72
2022/09/11 02:16:15;;;;;;;;;;;;;;;;;;4935629;29;1322;-71
2022/09/11 02:18:42;;;;;;;;;;;;;;;;;;4935595;29;1448;-72
2022/09/11 02:21:10;;;;;;;;;;;;;;;;;;4952399;28;1966;-70
2022/09/11 02:23:38;;;;;;;;;;;;;;;;;;4935447;29;1336;-71
2022/09/11 02:26:05;;;;;;;;;;;;;;;;;;4952758;29;1135;-70
2022/09/11 02:28:32;;;;;;;;;;;;;;;;;;4935483;29;1172;-72
2022/09/11 02:30:58;;;;;;;;;;;;;;;;;;4935373;29;1474;-70
2022/09/11 02:33:29;;;;;;;;;;;;;;;;;;4934917;29;1165;-72
2022/09/11 02:35:57;;;;;;;;;;;;;;;;;;4934507;29;1348;-71
2022/09/11 02:38:25;;;;;;;;;;;;;;;;;;4935285;29;1441;-72
2022/09/11 02:40:52;;;;;;;;;;;;;;;;;;4935191;29;1980;-72
2022/09/11 02:43:43;;;;;;;;;;;;;;;;;;4935176;29;1317;-72
2022/09/11 02:46:15;;;;;;;;;;;;;;;;;;4944694;28;1364;-71
2022/09/11 02:48:44;;;;;;;;;;;;;;;;;;4935242;29;1305;-72
2022/09/11 02:51:14;;;;;;;;;;;;;;;;;;4934778;29;1425;-71
2022/09/11 02:53:45;;;;;;;;;;;;;;;;;;4935037;29;1139;-71
2022/09/11 02:56:11;;;;;;;;;;;;;;;;;;4952047;29;918;-71
2022/09/11 02:58:40;;;;;;;;;;;;;;;;;;4935271;29;1326;-72
2022/09/11 03:01:08;;;;;;;;;;;;;;;;;;4935029;29;1985;-71
2022/09/11 03:03:38;;;;;;;;;;;;;;;;;;4934582;29;1406;-72
2022/09/11 03:06:05;;;;;;;;;;;;;;;;;;4934908;29;1284;-72
2022/09/11 03:08:31;;;;;;;;;;;;;;;;;;4934992;29;1160;-72
2022/09/11 03:10:59;;;;;;;;;;;;;;;;;;4934717;29;1443;-71
2022/09/11 03:13:26;;;;;;;;;;;;;;;;;;4951784;29;1045;-71
2022/09/11 03:15:53;;;;;;;;;;;;;;;;;;4935400;29;1160;-71
2022/09/11 03:18:19;;;;;;;;;;;;;;;;;;4944547;28;2008;-71
2022/09/11 03:20:46;;;;;;;;;;;;;;;;;;4944339;28;1999;-70
2022/09/11 03:23:12;;;;;;;;;;;;;;;;;;4980074;28;1923;-71
2022/09/11 03:25:39;;;;;;;;;;;;;;;;;;4953723;28;1215;-70
2022/09/11 03:28:07;;;;;;;;;;;;;;;;;;4953840;28;1234;-71
2022/09/11 03:30:34;;;;;;;;;;;;;;;;;;4953791;28;1393;-72
2022/09/11 03:33:00;;;;;;;;;;;;;;;;;;4953214;28;1198;-72
2022/09/11 03:35:26;;;;;;;;;;;;;;;;;;4970776;28;770;-72
2022/09/11 03:37:54;;;;;;;;;;;;;;;;;;4970844;28;1123;-72
2022/09/11 03:40:20;;;;;;;;;;;;;;;;;;4970766;28;1385;-71
2022/09/11 03:42:47;;;;;;;;;;;;;;;;;;4970637;28;1981;-71
2022/09/11 03:45:14;;;;;;;;;;;;;;;;;;4953445;28;1386;-71
2022/09/11 03:47:41;;;;;;;;;;;;;;;;;;4953017;28;1199;-72
2022/09/11 03:50:08;;;;;;;;;;;;;;;;;;4953250;28;1391;-71
2022/09/11 03:52:34;;;;;;;;;;;;;;;;;;4970527;28;1208;-71
2022/09/11 03:55:01;;;;;;;;;;;;;;;;;;4953419;28;1349;-71
2022/09/11 03:57:28;;;;;;;;;;;;;;;;;;4954376;28;1462;-71
2022/09/11 03:59:55;;;;;;;;;;;;;;;;;;4953499;28;1435;-71
2022/09/11 04:02:23;;;;;;;;;;;;;;;;;;4952844;28;1968;-71
2022/09/11 04:04:50;;;;;;;;;;;;;;;;;;4953244;28;1381;-71
2022/09/11 04:07:17;;;;;;;;;;;;;;;;;;4953034;28;999;-71
2022/09/11 04:09:44;;;;;;;;;;;;;;;;;;4953046;28;1512;-70
2022/09/11 04:12:12;;;;;;;;;;;;;;;;;;4952416;28;1436;-72
2022/09/11 04:14:39;;;;;;;;;;;;;;;;;;4953621;28;1287;-71
2022/09/11 04:17:07;;;;;;;;;;;;;;;;;;4953024;28;1256;-70
2022/09/11 04:19:35;;;;;;;;;;;;;;;;;;4952680;28;1802;-72
2022/09/11 04:22:02;;;;;;;;;;;;;;;;;;4952691;28;1915;-70
2022/09/11 04:24:29;;;;;;;;;;;;;;;;;;4952879;28;1286;-71
2022/09/11 04:26:59;;;;;;;;;;;;;;;;;;4952790;28;1570;-71
2022/09/11 04:29:27;;;;;;;;;;;;;;;;;;4952634;28;1484;-72
2022/09/11 04:31:56;;;;;;;;;;;;;;;;;;4952473;28;1267;-71
2022/09/11 04:34:26;;;;;;;;;;;;;;;;;;4952765;28;1416;-72
2022/09/11 04:36:54;;;;;;;;;;;;;;;;;;4953000;28;1208;-71
2022/09/11 04:39:21;;;;;;;;;;;;;;;;;;4952604;28;1336;-71
2022/09/11 04:41:48;;;;;;;;;;;;;;;;;;4952320;28;1966;-72
2022/09/11 04:44:15;;;;;;;;;;;;;;;;;;4952520;28;1203;-71
2022/09/11 04:46:44;;;;;;;;;;;;;;;;;;4952890;28;1229;-72
2022/09/11 04:49:11;;;;;;;;;;;;;;;;;;4952204;28;1318;-72
2022/09/11 04:51:38;;;;;;;;;;;;;;;;;;4952433;28;1360;-71
2022/09/11 04:54:07;;;;;;;;;;;;;;;;;;4946781;28;1628;-71
2022/09/11 04:56:37;;;;;;;;;;;;;;;;;;4931367;29;1177;-71
2022/09/11 04:59:05;;;;;;;;;;;;;;;;;;4931755;28;1480;-72
2022/09/11 05:01:34;;;;;;;;;;;;;;;;;;4943013;28;1910;-71
2022/09/11 05:04:00;;;;;;;;;;;;;;;;;;4950962;28;811;-71
2022/09/11 05:06:29;;;;;;;;;;;;;;;;;;4939898;28;1523;-71
2022/09/11 05:08:56;;;;;;;;;;;;;;;;;;4987504;28;1419;-70
2022/09/11 05:11:24;;;;;;;;;;;;;;;;;;4934600;28;1526;-71
2022/09/11 05:13:52;;;;;;;;;;;;;;;;;;4931004;28;1514;-71
2022/09/11 05:16:20;;;;;;;;;;;;;;;;;;4935641;28;1253;-72
2022/09/11 05:18:49;;;;;;;;;;;;;;;;;;4968396;28;1368;-72
2022/09/11 05:21:16;;;;;;;;;;;;;;;;;;4964694;28;1435;-70
2022/09/11 05:23:47;;;;;;;;;;;;;;;;;;4966352;28;1922;-71
2022/09/11 05:26:14;;;;;;;;;;;;;;;;;;4960722;28;1669;-70
2022/09/11 05:28:42;;;;;;;;;;;;;;;;;;4930034;29;1267;-71
2022/09/11 05:31:11;;;;;;;;;;;;;;;;;;4931567;28;1433;-70
2022/09/11 05:33:37;;;;;;;;;;;;;;;;;;4927527;29;1321;-70
2022/09/11 05:36:04;;;;;;;;;;;;;;;;;;4928751;28;1368;-71
2022/09/11 05:38:30;;;;;;;;;;;;;;;;;;4934835;28;1508;-71
2022/09/11 05:40:57;;;;;;;;;;;;;;;;;;4923521;28;1520;-70
2022/09/11 05:43:23;;;;;;;;;;;;;;;;;;4924408;29;1911;-70
2022/09/11 05:45:55;;;;;;;;;;;;;;;;;;4926019;29;1493;-70
2022/09/11 05:48:21;;;;;;;;;;;;;;;;;;4925889;29;1216;-71
2022/09/11 05:50:51;;;;;;;;;;;;;;;;;;4922586;28;1509;-71
2022/09/11 05:53:19;;;;;;;;;;;;;;;;;;4924617;29;1354;-69
2022/09/11 05:55:46;;;;;;;;;;;;;;;;;;4931030;29;1386;-69
2022/09/11 05:58:12;;;;;;;;;;;;;;;;;;4949643;28;1204;-70
2022/09/11 06:00:39;;;;;;;;;;;;;;;;;;4916209;29;1434;-70
2022/09/11 06:03:07;;;;;;;;;;;;;;;;;;4947081;28;1911;-71
2022/09/11 06:05:33;;;;;;;;;;;;;;;;;;4940749;28;1579;-71
2022/09/11 06:08:02;;;;;;;;;;;;;;;;;;4956328;28;1615;-70
2022/09/11 06:10:28;;;;;;;;;;;;;;;;;;4950764;28;1339;-69
2022/09/11 06:12:54;;;;;;;;;;;;;;;;;;4970107;28;1186;-70
2022/09/11 06:15:21;;;;;;;;;;;;;;;;;;4943133;28;1089;-69
2022/09/11 06:17:48;;;;;;;;;;;;;;;;;;4976180;28;1432;-69
2022/09/11 06:20:15;;;;;;;;;;;;;;;;;;4955760;28;1325;-70
2022/09/11 06:22:45;;;;;;;;;;;;;;;;;;4952028;28;2074;-70
2022/09/11 06:25:12;;;;;;;;;;;;;;;;;;4952622;28;1148;-70
2022/09/11 06:27:38;;;;;;;;;;;;;;;;;;4969973;28;843;-69
2022/09/11 06:30:05;;;;;;;;;;;;;;;;;;4949261;28;1645;-70
2022/09/11 06:32:35;;;;;;;;;;;;;;;;;;4977406;28;1334;-70
2022/09/11 06:35:02;;;;;;;;;;;;;;;;;;4951486;28;1435;-70
2022/09/11 06:37:30;;;;;;;;;;;;;;;;;;4938757;28;1428;-70
2022/09/11 06:39:56;;;;;;;;;;;;;;;;;;4948040;28;1356;-70
2022/09/11 06:42:26;;;;;;;;;;;;;;;;;;4923536;28;1906;-70
2022/09/11 06:44:57;;;;;;;;;;;;;;;;;;4929127;28;1365;-70
2022/09/11 06:47:24;;;;;;;;;;;;;;;;;;4925094;28;1268;-71
2022/09/11 06:49:51;;;;;;;;;;;;;;;;;;4934917;28;1428;-70
2022/09/11 06:52:34;;;;;;;;;;;;;;;;;;4935482;28;1414;-70
2022/09/11 06:55:12;;;;;;;;;;;;;;;;;;4933718;28;1500;-70
2022/09/11 06:57:40;;;;;;;;;;;;;;;;;;4939376;28;1340;-71
2022/09/11 07:00:09;;;;;;;;;;;;;;;;;;5013709;28;1478;-71
2022/09/11 07:02:39;;;;;;;;;;;;;;;;;;4931303;28;2005;-71
2022/09/11 07:05:06;;;;;;;;;;;;;;;;;;4940904;28;1511;-71
2022/09/11 07:07:35;;;;;;;;;;;;;;;;;;4951418;28;1219;-70
2022/09/11 07:10:03;;;;;;;;;;;;;;;;;;4952314;28;1492;-71
2022/09/11 07:12:30;;;;;;;;;;;;;;;;;;4943462;28;1386;-71
2022/09/11 07:14:57;;;;;;;;;;;;;;;;;;5003505;28;1150;-72
2022/09/11 07:17:23;;;;;;;;;;;;;;;;;;4952025;28;1144;-72
2022/09/11 07:19:52;;;;;;;;;;;;;;;;;;4953680;28;1658;-72
2022/09/11 07:22:18;;;;;;;;;;;;;;;;;;4944901;28;1919;-71
2022/09/11 07:24:46;;;;;;;;;;;;;;;;;;4960189;28;1352;-73
2022/09/11 07:27:14;;;;;;;;;;;;;;;;;;4939146;28;1498;-71
2022/09/11 07:29:41;;;;;;;;;;;;;;;;;;4972393;28;1382;-72
2022/09/11 07:32:07;;;;;;;;;;;;;;;;;;5034524;28;1517;-72
2022/09/11 07:34:34;;;;;;;;;;;;;;;;;;5034629;28;1023;-72
2022/09/11 07:37:04;;;;;;;;;;;;;;;;;;5034831;28;1372;-69
2022/09/11 07:39:31;;;;;;;;;;;;;;;;;;5034708;28;1505;-72
2022/09/11 07:42:06;;;;;;;;;;;;;;;;;;5034206;28;1289;-72
2022/09/11 07:44:33;;;;;;;;;;;;;;;;;;5034436;28;1921;-72
2022/09/11 07:47:00;;;;;;;;;;;;;;;;;;5034320;28;1498;-70
2022/09/11 07:49:27;;;;;;;;;;;;;;;;;;5034382;28;1324;-72
2022/09/11 07:51:54;;;;;;;;;;;;;;;;;;5034096;28;1543;-71
2022/09/11 07:54:29;;;;;;;;;;;;;;;;;;5034347;28;1115;-72
2022/09/11 07:56:56;;;;;;;;;;;;;;;;;;5034432;28;1231;-72
2022/09/11 07:59:24;;;;;;;;;;;;;;;;;;5033913;28;1408;-70
2022/09/11 08:01:52;;;;;;;;;;;;;;;;;;5033907;28;1344;-71
2022/09/11 08:04:19;;;;;;;;;;;;;;;;;;5033795;28;1965;-71
2022/09/11 08:06:45;;;;;;;;;;;;;;;;;;5034266;28;1185;-73
2022/09/11 08:09:19;;;;;;;;;;;;;;;;;;5034264;28;1531;-72
2022/09/11 08:11:57;;;;;;;;;;;;;;;;;;5033728;28;1479;-72
2022/09/11 08:14:26;;;;;;;;;;;;;;;;;;5034137;28;1392;-72
2022/09/11 08:16:53;;;;;;;;;;;;;;;;;;5033965;28;1482;-72
2022/09/11 08:19:21;;;;;;;;;;;;;;;;;;5033882;28;1514;-72
2022/09/11 08:21:52;;;;;;;;;;;;;;;;;;5033641;28;1273;-70
2022/09/11 08:24:20;;;;;;;;;;;;;;;;;;5033713;28;1918;-72
2022/09/11 08:26:48;;;;;;;;;;;;;;;;;;5033881;28;1300;-72
2022/09/11 08:29:14;;;;;;;;;;;;;;;;;;5033456;28;1407;-71
2022/09/11 08:31:42;;;;;;;;;;;;;;;;;;5051330;28;941;-72
2022/09/11 08:34:10;;;;;;;;;;;;;;;;;;5033241;28;1489;-72
2022/09/11 08:36:38;;;;;;;;;;;;;;;;;;5033463;28;1445;-72
2022/09/11 08:39:05;;;;;;;;;;;;;;;;;;5033554;28;1537;-72
2022/09/11 08:41:40;;;;;;;;;;;;;;;;;;5033003;28;1325;-72
2022/09/11 08:44:13;;;;;;;;;;;;;;;;;;5033369;28;1952;-72
2022/09/11 08:46:41;;;;;;;;;;;;;;;;;;5050991;28;842;-72
2022/09/11 08:49:11;;;;;;;;;;;;;;;;;;5032892;28;1391;-72
2022/09/11 08:51:38;;;;;;;;;;;;;;;;;;5032736;28;1163;-72
2022/09/11 08:54:05;;;;;;;;;;;;;;;;;;5033495;28;1379;-72
2022/09/11 08:56:35;;;;;;;;;;;;;;;;;;5033367;28;963;-72
2022/09/11 08:59:15;;;;;;;;;;;;;;;;;;5032756;28;1549;-72
2022/09/11 09:01:45;;;;;;;;;;;;;;;;;;5032857;28;1334;-72
2022/09/11 09:04:28;;;;;;;;;;;;;;;;;;4984685;28;1976;-72
2022/09/11 09:06:57;;;;;;;;;;;;;;;;;;4933241;28;985;-71
2022/09/11 09:09:25;;;;;;;;;;;;;;;;;;4931563;28;1532;-72
2022/09/11 09:11:54;;;;;;;;;;;;;;;;;;4937179;28;1686;-72
2022/09/11 09:14:23;;;;;;;;;;;;;;;;;;4956348;28;1316;-72
2022/09/11 09:16:52;;;;;;;;;;;;;;;;;;4942958;29;1654;-72
2022/09/11 09:19:23;;;;;;;;;;;;;;;;;;4938651;28;1451;-72
2022/09/11 09:21:55;;;;;;;;;;;;;;;;;;4960575;28;1273;-72
2022/09/11 09:24:21;;;;;;;;;;;;;;;;;;4948622;29;1983;-71
2022/09/11 09:26:52;;;;;;;;;;;;;;;;;;4932434;28;1223;-71
2022/09/11 09:29:19;;;;;;;;;;;;;;;;;;4951917;28;1669;-72
2022/09/11 09:31:45;;;;;;;;;;;;;;;;;;4950502;28;1654;-71
2022/09/11 09:34:14;;;;;;;;;;;;;;;;;;5024652;28;1142;-71
2022/09/11 09:36:43;;;;;;;;;;;;;;;;;;4944893;28;1855;-72
2022/09/11 09:39:11;;;;;;;;;;;;;;;;;;4947041;28;1507;-71
2022/09/11 09:41:48;;;;;;;;;;;;;;;;;;4966849;28;1165;-72
2022/09/11 09:44:17;;;;;;;;;;;;;;;;;;4941740;28;1993;-71
2022/09/11 09:46:43;;;;;;;;;;;;;;;;;;4947737;28;1271;-72
2022/09/11 09:49:10;;;;;;;;;;;;;;;;;;4962126;28;1378;-72
2022/09/11 09:51:38;;;;;;;;;;;;;;;;;;4932725;28;1401;-72
2022/09/11 09:54:04;;;;;;;;;;;;;;;;;;4950760;29;1443;-69
2022/09/11 09:56:31;;;;;;;;;;;;;;;;;;4950389;29;1448;-72
2022/09/11 09:59:01;;;;;;;;;;;;;;;;;;4933023;29;1524;-70
2022/09/11 10:01:43;;;;;;;;;;;;;;;;;;4953244;28;1698;-69
2022/09/11 10:04:11;;;;;;;;;;;;;;;;;;4957395;28;1938;-71
2022/09/11 10:06:37;;;;;;;;;;;;;;;;;;4935419;28;1299;-71
2022/09/11 10:09:03;;;;;;;;;;;;;;;;;;4936638;29;1322;-71
2022/09/11 10:11:30;;;;;;;;;;;;;;;;;;4939713;29;1256;-70
2022/09/11 10:13:56;;;;;;;;;;;;;;;;;;4939849;28;1180;-71
2022/09/11 10:16:25;;;;;;;;;;;;;;;;;;4941866;28;1317;-71
2022/09/11 10:18:52;;;;;;;;;;;;;;;;;;4961842;28;1491;-71
2022/09/11 10:21:22;;;;;;;;;;;;;;;;;;4990286;22;2223;-75
2022/09/11 10:23:50;;;;;;;;;;;;;;;;;;4975572;28;1982;-74
2022/09/11 10:26:16;;;;;;;;;;;;;;;;;;4988236;28;1318;-75
2022/09/11 10:28:44;;;;;;;;;;;;;;;;;;4971167;28;1378;-75
2022/09/11 10:31:12;;;;;;;;;;;;;;;;;;4981398;28;1514;-76
2022/09/11 10:33:40;;;;;;;;;;;;;;;;;;4970401;28;1476;-75
2022/09/11 10:36:07;;;;;;;;;;;;;;;;;;4979540;28;1500;-75
2022/09/11 10:38:35;;;;;;;;;;;;;;;;;;4982981;28;1217;-73
2022/09/11 10:41:08;;;;;;;;;;;;;;;;;;4974205;28;1498;-74
2022/09/11 10:43:35;;;;;;;;;;;;;;;;;;4974158;28;1982;-74
2022/09/11 10:46:02;;;;;;;;;;;;;;;;;;4974394;28;1421;-74
2022/09/11 10:48:28;;;;;;;;;;;;;;;;;;4970953;28;1623;-74
2022/09/11 10:50:58;;;;;;;;;;;;;;;;;;4970335;28;1401;-74
2022/09/11 10:53:24;;;;;;;;;;;;;;;;;;4972128;28;1496;-74
2022/09/11 10:55:51;;;;;;;;;;;;;;;;;;4979210;28;1170;-74
2022/09/11 10:58:19;;;;;;;;;;;;;;;;;;4971810;28;1179;-74
2022/09/11 11:00:45;;;;;;;;;;;;;;;;;;4979733;28;1482;-73
2022/09/11 11:03:15;;;;;;;;;;;;;;;;;;4972494;28;1492;-73
2022/09/11 11:05:44;;;;;;;;;;;;;;;;;;4976051;28;1978;-74
2022/09/11 11:08:20;;;;;;;;;;;;;;;;;;4980373;28;1339;-74
2022/09/11 11:10:50;;;;;;;;;;;;;;;;;;4983092;28;1433;-73
2022/09/11 11:13:21;;;;;;;;;;;;;;;;;;4979452;28;1624;-73
2022/09/11 11:15:50;;;;;;;;;;;;;;;;;;4982564;28;1193;-73
2022/09/11 11:18:20;;;;;;;;;;;;;;;;;;4990378;28;1043;-73
2022/09/11 11:20:49;;;;;;;;;;;;;;;;;;4987499;28;1486;-73
2022/09/11 11:23:24;;;;;;;;;;;;;;;;;;4970437;28;1333;-73
2022/09/11 11:25:53;;;;;;;;;;;;;;;;;;4972107;28;1918;-73
2022/09/11 11:28:33;;;;;;;;;;;;;;;;;;4982332;28;1293;-73
2022/09/11 11:31:02;;;;;;;;;;;;;;;;;;4982387;28;1338;-72
2022/09/11 11:33:38;;;;;;;;;;;;;;;;;;4970458;28;1182;-73
2022/09/11 11:36:06;;;;;;;;;;;;;;;;;;4970291;28;1479;-72
2022/09/11 11:38:38;;;;;;;;;;;;;;;;;;4970208;28;1313;-73
2022/09/11 11:41:06;;;;;;;;;;;;;;;;;;5007952;28;1664;-73
2022/09/11 11:43:33;;;;;;;;;;;;;;;;;;4967295;28;1094;-74
2022/09/11 11:46:01;;;;;;;;;;;;;;;;;;4968727;28;1994;-74
2022/09/11 11:48:32;;;;;;;;;;;;;;;;;;4968795;28;693;-74
2022/09/11 11:50:59;;;;;;;;;;;;;;;;;;4951502;28;1281;-72
2022/09/11 11:53:25;;;;;;;;;;;;;;;;;;4968612;28;1080;-74
2022/09/11 11:55:58;;;;;;;;;;;;;;;;;;4968653;28;775;-74
2022/09/11 11:58:27;;;;;;;;;;;;;;;;;;4951849;28;908;-74
2022/09/11 12:00:55;;;;;;;;;;;;;;;;;;4970580;28;774;-73
2022/09/11 12:03:22;;;;;;;;;;;;;;;;;;4952569;28;1232;-74
2022/09/11 12:05:49;;;;;;;;;;;;;;;;;;4970522;28;2316;-74
2022/09/11 12:08:15;;;;;;;;;;;;;;;;;;4952721;28;1251;-74
2022/09/11 12:10:42;;;;;;;;;;;;;;;;;;4970320;28;1127;-73
2022/09/11 12:13:12;;;;;;;;;;;;;;;;;;4970211;28;1444;-74
2022/09/11 12:15:38;;;;;;;;;;;;;;;;;;4970545;28;1488;-74
2022/09/11 12:18:05;;;;;;;;;;;;;;;;;;4972856;28;1365;-74
2022/09/11 12:20:36;;;;;;;;;;;;;;;;;;4989703;28;1091;-74
2022/09/11 12:23:03;;;;;;;;;;;;;;;;;;4989377;28;1351;-75
2022/09/11 12:25:49;;;;;;;;;;;;;;;;;;4989288;28;1911;-75
2022/09/11 12:28:21;;;;;;;;;;;;;;;;;;4989395;28;1016;-75
2022/09/11 12:31:10;;;;;;;;;;;;;;;;;;4989463;28;1143;-74
2022/09/11 12:33:48;;;;;;;;;;;;;;;;;;4974550;28;1196;-75
2022/09/11 12:36:15;;;;;;;;;;;;;;;;;;4972188;28;1008;-75
2022/09/11 12:38:43;;;;;;;;;;;;;;;;;;4989514;28;1075;-75
2022/09/11 12:41:11;;;;;;;;;;;;;;;;;;4990411;28;1364;-75
2022/09/11 12:43:49;;;;;;;;;;;;;;;;;;4993855;28;1122;-75
2022/09/11 12:46:34;;;;;;;;;;;;;;;;;;4976699;28;1966;-75
2022/09/11 12:49:06;;;;;;;;;;;;;;;;;;4989314;28;897;-75
2022/09/11 12:51:34;;;;;;;;;;;;;;;;;;4974074;28;1402;-75
2022/09/11 12:54:00;;;;;;;;;;;;;;;;;;4973889;28;1319;-75
2022/09/11 12:56:27;;;;;;;;;;;;;;;;;;4966171;28;1467;-75
2022/09/11 12:58:57;;;;;;;;;;;;;;;;;;4974389;28;1546;-75
2022/09/11 13:01:24;;;;;;;;;;;;;;;;;;4956594;28;1452;-75
2022/09/11 13:03:52;;;;;;;;;;;;;;;;;;4975984;28;1440;-73
2022/09/11 13:06:18;;;;;;;;;;;;;;;;;;4955436;28;1983;-75
2022/09/11 13:08:46;;;;;;;;;;;;;;;;;;4974978;28;1603;-75
2022/09/11 13:11:31;;;;;;;;;;;;;;;;;;4978405;28;1693;-72
2022/09/11 13:13:58;;;;;;;;;;;;;;;;;;4962383;28;1378;-74
2022/09/11 13:16:25;;;;;;;;;;;;;;;;;;4951910;28;1394;-76
2022/09/11 13:18:52;;;;;;;;;;;;;;;;;;4967029;28;1397;-75
2022/09/11 13:21:18;;;;;;;;;;;;;;;;;;4972987;28;1687;-74
2022/09/11 13:23:45;;;;;;;;;;;;;;;;;;4950273;28;1481;-73
2022/09/11 13:26:14;;;;;;;;;;;;;;;;;;4960037;28;1919;-76
2022/09/11 13:28:42;;;;;;;;;;;;;;;;;;4969958;28;1615;-74
2022/09/11 13:31:13;;;;;;;;;;;;;;;;;;4983269;28;1478;-73
2022/09/11 13:33:40;;;;;;;;;;;;;;;;;;4953862;28;1413;-74
2022/09/11 13:36:07;;;;;;;;;;;;;;;;;;4965546;28;1547;-74
2022/09/11 13:38:34;;;;;;;;;;;;;;;;;;4950396;28;1966;-73
2022/09/11 13:41:05;;;;;;;;;;;;;;;;;;4967972;28;1475;-74
2022/09/11 13:43:32;;;;;;;;;;;;;;;;;;4966717;28;1590;-73
2022/09/11 13:46:08;;;;;;;;;;;;;;;;;;4971577;28;1915;-73
2022/09/11 13:48:37;;;;;;;;;;;;;;;;;;4973511;28;1643;-73
2022/09/11 13:51:04;;;;;;;;;;;;;;;;;;4968549;28;1421;-73
2022/09/11 13:53:31;;;;;;;;;;;;;;;;;;4981307;28;1614;-74
2022/09/11 13:55:57;;;;;;;;;;;;;;;;;;4982584;28;1371;-74
2022/09/11 13:58:25;;;;;;;;;;;;;;;;;;4956682;28;1416;-73
2022/09/11 14:00:51;;;;;;;;;;;;;;;;;;4979939;28;1408;-75
2022/09/11 14:03:21;;;;;;;;;;;;;;;;;;4977393;28;1409;-75
2022/09/11 14:05:49;;;;;;;;;;;;;;;;;;4977134;28;1919;-75
2022/09/11 14:08:18;;;;;;;;;;;;;;;;;;4981568;28;1159;-75
2022/09/11 14:10:45;;;;;;;;;;;;;;;;;;4974282;28;1475;-75
2022/09/11 14:13:13;;;;;;;;;;;;;;;;;;4978467;28;1408;-75
2022/09/11 14:15:40;;;;;;;;;;;;;;;;;;4959720;28;1493;-74
2022/09/11 14:18:06;;;;;;;;;;;;;;;;;;4974054;28;1709;-75
2022/09/11 14:20:33;;;;;;;;;;;;;;;;;;4960399;28;1315;-74
2022/09/11 14:23:01;;;;;;;;;;;;;;;;;;4934870;28;1019242;-74
2022/09/11 14:25:28;;;;;;;;;;;;;;;;;;4970647;28;1978;-74
2022/09/11 14:27:55;;;;;;;;;;;;;;;;;;4968163;28;1279;-74
2022/09/11 14:30:32;;;;;;;;;;;;;;;;;;4970575;28;1192;-74
2022/09/11 14:33:05;;;;;;;;;;;;;;;;;;4967932;28;1454;-75
2022/09/11 14:35:32;;;;;;;;;;;;;;;;;;4971207;28;1397;-74
2022/09/11 14:37:58;;;;;;;;;;;;;;;;;;5008205;28;1249;-74
2022/09/11 14:40:25;;;;;;;;;;;;;;;;;;5006213;28;1413;-74
2022/09/11 14:42:52;;;;;;;;;;;;;;;;;;5018141;28;1550;-74
2022/09/11 14:45:19;;;;;;;;;;;;;;;;;;5022691;28;1980;-74
2022/09/11 14:47:45;;;;;;;;;;;;;;;;;;4977281;28;1332;-75
2022/09/11 14:50:12;;;;;;;;;;;;;;;;;;4972466;28;1155;-74
2022/09/11 14:52:38;;;;;;;;;;;;;;;;;;5023623;28;1464;-75
2022/09/11 14:55:05;;;;;;;;;;;;;;;;;;5073594;28;1055;-74
2022/09/11 14:57:34;;;;;;;;;;;;;;;;;;5022211;28;1466;-74
2022/09/11 15:00:00;;;;;;;;;;;;;;;;;;4965361;28;1163;-74
2022/09/11 15:02:27;;;;;;;;;;;;;;;;;;4971275;28;1409;-75
2022/09/11 15:04:54;;;;;;;;;;;;;;;;;;4978328;28;1910;-76
2022/09/11 15:07:21;;;;;;;;;;;;;;;;;;4971251;28;1181;-75
2022/09/11 15:09:47;;;;;;;;;;;;;;;;;;4957660;28;1470;-75
2022/09/11 15:12:14;;;;;;;;;;;;;;;;;;4954876;28;1504;-75
2022/09/11 15:14:42;;;;;;;;;;;;;;;;;;4972999;28;1491;-76
2022/09/11 15:17:09;;;;;;;;;;;;;;;;;;4979266;28;1354;-75
2022/09/11 15:19:36;;;;;;;;;;;;;;;;;;4969096;28;1308;-74
2022/09/11 15:22:03;;;;;;;;;;;;;;;;;;5011908;28;1406;-74
2022/09/11 15:24:29;;;;;;;;;;;;;;;;;;4978213;28;1246;-74
2022/09/11 15:26:57;;;;;;;;;;;;;;;;;;4967849;28;1914;-73
2022/09/11 15:29:24;;;;;;;;;;;;;;;;;;4970359;28;1083;-75
2022/09/11 15:31:52;;;;;;;;;;;;;;;;;;4960305;28;1393;-74
2022/09/11 15:34:18;;;;;;;;;;;;;;;;;;4966018;28;1444;-74
2022/09/11 15:36:44;;;;;;;;;;;;;;;;;;4976229;28;1205;-75
2022/09/11 15:39:12;;;;;;;;;;;;;;;;;;4964801;28;1405;-74
2022/09/11 15:41:38;;;;;;;;;;;;;;;;;;4967428;28;1429;-74
2022/09/11 15:44:05;;;;;;;;;;;;;;;;;;4967607;28;1336;-74
2022/09/11 15:46:31;;;;;;;;;;;;;;;;;;4956849;28;1910;-75
2022/09/11 15:48:59;;;;;;;;;;;;;;;;;;4969291;28;1928;-73
2022/09/11 15:51:26;;;;;;;;;;;;;;;;;;4958258;28;1450;-75
2022/09/11 15:53:52;;;;;;;;;;;;;;;;;;4984245;28;1114;-75
2022/09/11 15:56:19;;;;;;;;;;;;;;;;;;4962912;28;1555;-73
2022/09/11 15:58:45;;;;;;;;;;;;;;;;;;4978010;28;1023;-75
2022/09/11 16:01:18;;;;;;;;;;;;;;;;;;4953377;28;1360;-72
2022/09/11 16:03:44;;;;;;;;;;;;;;;;;;4950891;28;910;-74
2022/09/11 16:06:12;;;;;;;;;;;;;;;;;;4967967;28;1910;-74
2022/09/11 16:08:38;;;;;;;;;;;;;;;;;;4968485;28;771;-75
2022/09/11 16:11:05;;;;;;;;;;;;;;;;;;4968026;28;1462;-75
2022/09/11 16:13:31;;;;;;;;;;;;;;;;;;4960001;28;1514;-76
2022/09/11 16:16:01;;;;;;;;;;;;;;;;;;4977100;28;1369;-75
2022/09/11 16:18:27;;;;;;;;;;;;;;;;;;4966642;28;1734;-76
2022/09/11 16:20:56;;;;;;;;;;;;;;;;;;4973867;28;1460;-75
2022/09/11 16:23:24;;;;;;;;;;;;;;;;;;4971645;28;1894;-75
2022/09/11 16:25:51;;;;;;;;;;;;;;;;;;4966073;28;1992;-76
2022/09/11 16:28:18;;;;;;;;;;;;;;;;;;4959492;28;1370;-76
2022/09/11 16:30:44;;;;;;;;;;;;;;;;;;4965675;28;1601;-75
2022/09/11 16:33:10;;;;;;;;;;;;;;;;;;4975600;28;1365;-75
2022/09/11 16:35:37;;;;;;;;;;;;;;;;;;4965986;28;1065;-75
2022/09/11 16:38:03;;;;;;;;;;;;;;;;;;4969405;28;1439;-76
2022/09/11 16:40:30;;;;;;;;;;;;;;;;;;4971388;28;1523;-76
2022/09/11 16:42:57;;;;;;;;;;;;;;;;;;4980250;28;1423;-76
2022/09/11 16:45:23;;;;;;;;;;;;;;;;;;4974120;28;1922;-76
2022/09/11 16:47:49;;;;;;;;;;;;;;;;;;4982760;28;1185;-76
2022/09/11 16:50:16;;;;;;;;;;;;;;;;;;4962006;28;1583;-76
2022/09/11 16:52:42;;;;;;;;;;;;;;;;;;4975792;28;1578;-77
2022/09/11 16:55:09;;;;;;;;;;;;;;;;;;4975158;28;1293;-76
2022/09/11 16:57:36;;;;;;;;;;;;;;;;;;4965303;28;878;-76
2022/09/11 17:00:03;;;;;;;;;;;;;;;;;;4949690;28;1138;-76
2022/09/11 17:02:29;;;;;;;;;;;;;;;;;;4965410;28;1420;-74
2022/09/11 17:04:56;;;;;;;;;;;;;;;;;;4975294;28;1603;-76
2022/09/11 17:07:22;;;;;;;;;;;;;;;;;;4969571;28;1918;-77
2022/09/11 17:09:48;;;;;;;;;;;;;;;;;;4981851;28;1099;-76